sensor_id;sensor_type;location;lat;lon;timestamp;P1;durP1;ratioP1;P2;durP2;ratioP2
14191;SDS011;7177;48.572;7.838;2024-03-02T00:00:13;8.40;;;5.85;;
14191;SDS011;7177;48.572;7.838;2024-03-02T00:02:42;6.20;;;5.60;;
14191;SDS011;7177;48.572;7.838;2024-03-02T00:05:15;5.95;;;5.20;;
14191;SDS011;7177;48.572;7.838;2024-03-02T00:07:42;7.18;;;5.50;;
14191;SDS011;7177;48.572;7.838;2024-03-02T00:10:10;5.82;;;5.22;;
14191;SDS011;7177;48.572;7.838;2024-03-02T00:12:40;5.80;;;5.05;;
14191;SDS011;7177;48.572;7.838;2024-03-02T00:15:35;6.03;;;5.10;;
14191;SDS011;7177;48.572;7.838;2024-03-02T00:18:11;6.47;;;5.38;;
14191;SDS011;7177;48.572;7.838;2024-03-02T00:20:45;7.80;;;5.95;;
14191;SDS011;7177;48.572;7.838;2024-03-02T00:23:13;7.00;;;5.87;;
14191;SDS011;7177;48.572;7.838;2024-03-02T00:25:47;7.65;;;5.70;;
14191;SDS011;7177;48.572;7.838;2024-03-02T00:28:17;7.35;;;6.20;;
14191;SDS011;7177;48.572;7.838;2024-03-02T00:30:54;8.77;;;6.18;;
14191;SDS011;7177;48.572;7.838;2024-03-02T00:33:30;6.78;;;5.65;;
14191;SDS011;7177;48.572;7.838;2024-03-02T00:36:04;7.45;;;6.25;;
14191;SDS011;7177;48.572;7.838;2024-03-02T00:38:31;8.52;;;6.70;;
14191;SDS011;7177;48.572;7.838;2024-03-02T00:41:04;8.07;;;6.63;;
14191;SDS011;7177;48.572;7.838;2024-03-02T00:46:10;8.90;;;7.45;;
14191;SDS011;7177;48.572;7.838;2024-03-02T00:48:59;10.45;;;7.25;;
14191;SDS011;7177;48.572;7.838;2024-03-02T00:51:27;9.75;;;7.60;;
14191;SDS011;7177;48.572;7.838;2024-03-02T00:53:54;9.52;;;6.65;;
14191;SDS011;7177;48.572;7.838;2024-03-02T00:56:21;8.23;;;6.13;;
14191;SDS011;7177;48.572;7.838;2024-03-02T00:58:48;8.80;;;6.40;;
14191;SDS011;7177;48.572;7.838;2024-03-02T01:01:15;8.70;;;6.75;;
14191;SDS011;7177;48.572;7.838;2024-03-02T01:03:41;9.48;;;7.00;;
14191;SDS011;7177;48.572;7.838;2024-03-02T01:06:07;9.07;;;6.90;;
14191;SDS011;7177;48.572;7.838;2024-03-02T01:08:36;7.90;;;6.60;;
14191;SDS011;7177;48.572;7.838;2024-03-02T01:11:02;9.25;;;6.90;;
14191;SDS011;7177;48.572;7.838;2024-03-02T01:13:28;8.38;;;6.43;;
14191;SDS011;7177;48.572;7.838;2024-03-02T01:15:54;7.40;;;6.63;;
14191;SDS011;7177;48.572;7.838;2024-03-02T01:18:20;8.57;;;7.18;;
14191;SDS011;7177;48.572;7.838;2024-03-02T01:20:47;9.15;;;7.07;;
14191;SDS011;7177;48.572;7.838;2024-03-02T01:23:12;9.43;;;6.60;;
14191;SDS011;7177;48.572;7.838;2024-03-02T01:25:38;11.73;;;7.50;;
14191;SDS011;7177;48.572;7.838;2024-03-02T01:28:04;8.67;;;7.40;;
14191;SDS011;7177;48.572;7.838;2024-03-02T01:30:30;8.70;;;7.55;;
14191;SDS011;7177;48.572;7.838;2024-03-02T01:32:55;10.50;;;7.00;;
14191;SDS011;7177;48.572;7.838;2024-03-02T01:35:21;9.93;;;7.20;;
14191;SDS011;7177;48.572;7.838;2024-03-02T01:37:46;8.27;;;7.07;;
14191;SDS011;7177;48.572;7.838;2024-03-02T01:40:12;7.97;;;6.20;;
14191;SDS011;7177;48.572;7.838;2024-03-02T01:42:38;8.87;;;6.40;;
14191;SDS011;7177;48.572;7.838;2024-03-02T01:45:09;8.80;;;6.10;;
14191;SDS011;7177;48.572;7.838;2024-03-02T01:47:35;9.15;;;6.25;;
14191;SDS011;7177;48.572;7.838;2024-03-02T01:50:01;8.77;;;6.90;;
14191;SDS011;7177;48.572;7.838;2024-03-02T01:52:27;8.87;;;6.50;;
14191;SDS011;7177;48.572;7.838;2024-03-02T01:54:52;7.82;;;6.70;;
14191;SDS011;7177;48.572;7.838;2024-03-02T01:57:18;7.93;;;6.23;;
14191;SDS011;7177;48.572;7.838;2024-03-02T01:59:44;8.27;;;6.67;;
14191;SDS011;7177;48.572;7.838;2024-03-02T02:02:12;6.80;;;5.90;;
14191;SDS011;7177;48.572;7.838;2024-03-02T02:04:38;13.93;;;6.23;;
14191;SDS011;7177;48.572;7.838;2024-03-02T02:07:04;6.50;;;5.13;;
14191;SDS011;7177;48.572;7.838;2024-03-02T02:09:29;6.70;;;5.07;;
14191;SDS011;7177;48.572;7.838;2024-03-02T02:11:55;6.50;;;4.57;;
14191;SDS011;7177;48.572;7.838;2024-03-02T02:14:20;5.23;;;4.27;;
14191;SDS011;7177;48.572;7.838;2024-03-02T02:16:46;6.00;;;4.43;;
14191;SDS011;7177;48.572;7.838;2024-03-02T02:19:11;5.47;;;4.30;;
14191;SDS011;7177;48.572;7.838;2024-03-02T02:21:37;6.20;;;5.00;;
14191;SDS011;7177;48.572;7.838;2024-03-02T02:24:02;5.37;;;4.17;;
14191;SDS011;7177;48.572;7.838;2024-03-02T02:26:29;7.07;;;4.63;;
14191;SDS011;7177;48.572;7.838;2024-03-02T02:28:54;6.93;;;4.60;;
14191;SDS011;7177;48.572;7.838;2024-03-02T02:31:20;6.00;;;4.77;;
14191;SDS011;7177;48.572;7.838;2024-03-02T02:33:45;5.00;;;3.90;;
14191;SDS011;7177;48.572;7.838;2024-03-02T02:36:11;4.87;;;4.37;;
14191;SDS011;7177;48.572;7.838;2024-03-02T02:38:38;5.03;;;4.33;;
14191;SDS011;7177;48.572;7.838;2024-03-02T02:41:12;6.28;;;4.53;;
14191;SDS011;7177;48.572;7.838;2024-03-02T02:43:38;6.13;;;3.97;;
14191;SDS011;7177;48.572;7.838;2024-03-02T02:46:04;5.18;;;4.30;;
14191;SDS011;7177;48.572;7.838;2024-03-02T02:48:30;6.13;;;4.40;;
14191;SDS011;7177;48.572;7.838;2024-03-02T02:50:56;4.97;;;4.47;;
14191;SDS011;7177;48.572;7.838;2024-03-02T02:53:21;7.43;;;4.87;;
14191;SDS011;7177;48.572;7.838;2024-03-02T02:55:47;5.03;;;4.43;;
14191;SDS011;7177;48.572;7.838;2024-03-02T02:58:12;5.70;;;4.47;;
14191;SDS011;7177;48.572;7.838;2024-03-02T03:00:38;5.53;;;4.50;;
14191;SDS011;7177;48.572;7.838;2024-03-02T03:03:03;5.70;;;4.77;;
14191;SDS011;7177;48.572;7.838;2024-03-02T03:05:29;5.87;;;4.60;;
14191;SDS011;7177;48.572;7.838;2024-03-02T03:07:55;5.87;;;4.87;;
14191;SDS011;7177;48.572;7.838;2024-03-02T03:10:20;6.17;;;4.77;;
14191;SDS011;7177;48.572;7.838;2024-03-02T03:12:48;6.85;;;4.97;;
14191;SDS011;7177;48.572;7.838;2024-03-02T03:15:14;5.63;;;3.93;;
14191;SDS011;7177;48.572;7.838;2024-03-02T03:17:41;6.20;;;4.63;;
14191;SDS011;7177;48.572;7.838;2024-03-02T03:20:06;6.00;;;4.70;;
14191;SDS011;7177;48.572;7.838;2024-03-02T03:22:36;5.47;;;4.97;;
14191;SDS011;7177;48.572;7.838;2024-03-02T03:25:02;6.00;;;4.82;;
14191;SDS011;7177;48.572;7.838;2024-03-02T03:27:28;5.70;;;4.82;;
14191;SDS011;7177;48.572;7.838;2024-03-02T03:29:54;5.57;;;4.87;;
14191;SDS011;7177;48.572;7.838;2024-03-02T03:32:20;5.30;;;4.80;;
14191;SDS011;7177;48.572;7.838;2024-03-02T03:34:45;5.90;;;5.30;;
14191;SDS011;7177;48.572;7.838;2024-03-02T03:37:12;6.25;;;5.10;;
14191;SDS011;7177;48.572;7.838;2024-03-02T03:39:38;6.23;;;5.33;;
14191;SDS011;7177;48.572;7.838;2024-03-02T03:42:03;8.33;;;6.33;;
14191;SDS011;7177;48.572;7.838;2024-03-02T03:44:29;8.53;;;6.60;;
14191;SDS011;7177;48.572;7.838;2024-03-02T03:46:55;8.60;;;6.47;;
14191;SDS011;7177;48.572;7.838;2024-03-02T03:49:20;8.33;;;6.60;;
14191;SDS011;7177;48.572;7.838;2024-03-02T03:51:46;7.80;;;6.40;;
14191;SDS011;7177;48.572;7.838;2024-03-02T03:54:11;8.87;;;6.70;;
14191;SDS011;7177;48.572;7.838;2024-03-02T03:56:37;7.50;;;5.73;;
14191;SDS011;7177;48.572;7.838;2024-03-02T03:59:02;7.47;;;5.30;;
14191;SDS011;7177;48.572;7.838;2024-03-02T04:01:29;6.55;;;5.50;;
14191;SDS011;7177;48.572;7.838;2024-03-02T04:03:55;8.27;;;5.53;;
14191;SDS011;7177;48.572;7.838;2024-03-02T04:06:21;6.67;;;5.80;;
14191;SDS011;7177;48.572;7.838;2024-03-02T04:08:46;7.10;;;5.37;;
14191;SDS011;7177;48.572;7.838;2024-03-02T04:11:11;5.90;;;5.23;;
14191;SDS011;7177;48.572;7.838;2024-03-02T04:13:37;6.50;;;5.57;;
14191;SDS011;7177;48.572;7.838;2024-03-02T04:16:02;6.17;;;4.90;;
14191;SDS011;7177;48.572;7.838;2024-03-02T04:18:30;6.28;;;4.97;;
14191;SDS011;7177;48.572;7.838;2024-03-02T04:20:55;6.13;;;5.00;;
14191;SDS011;7177;48.572;7.838;2024-03-02T04:23:23;5.63;;;4.57;;
14191;SDS011;7177;48.572;7.838;2024-03-02T04:25:48;6.33;;;4.93;;
14191;SDS011;7177;48.572;7.838;2024-03-02T04:28:14;5.13;;;4.50;;
14191;SDS011;7177;48.572;7.838;2024-03-02T04:30:39;6.83;;;5.10;;
14191;SDS011;7177;48.572;7.838;2024-03-02T04:33:05;7.67;;;5.93;;
14191;SDS011;7177;48.572;7.838;2024-03-02T04:35:32;8.30;;;6.07;;
14191;SDS011;7177;48.572;7.838;2024-03-02T04:37:57;7.57;;;5.40;;
14191;SDS011;7177;48.572;7.838;2024-03-02T04:40:23;6.37;;;5.20;;
14191;SDS011;7177;48.572;7.838;2024-03-02T04:42:48;6.03;;;5.13;;
14191;SDS011;7177;48.572;7.838;2024-03-02T04:45:14;6.87;;;4.90;;
14191;SDS011;7177;48.572;7.838;2024-03-02T04:47:39;6.90;;;5.47;;
14191;SDS011;7177;48.572;7.838;2024-03-02T04:50:05;6.80;;;5.47;;
14191;SDS011;7177;48.572;7.838;2024-03-02T04:52:33;6.18;;;5.20;;
14191;SDS011;7177;48.572;7.838;2024-03-02T04:54:59;6.80;;;5.50;;
14191;SDS011;7177;48.572;7.838;2024-03-02T04:57:43;8.20;;;5.40;;
14191;SDS011;7177;48.572;7.838;2024-03-02T05:00:09;7.00;;;5.43;;
14191;SDS011;7177;48.572;7.838;2024-03-02T05:02:35;8.77;;;5.28;;
14191;SDS011;7177;48.572;7.838;2024-03-02T05:05:01;6.50;;;5.07;;
14191;SDS011;7177;48.572;7.838;2024-03-02T05:07:27;8.60;;;5.25;;
14191;SDS011;7177;48.572;7.838;2024-03-02T05:09:53;6.50;;;5.17;;
14191;SDS011;7177;48.572;7.838;2024-03-02T05:12:19;7.40;;;5.17;;
14191;SDS011;7177;48.572;7.838;2024-03-02T05:15:03;6.68;;;5.30;;
14191;SDS011;7177;48.572;7.838;2024-03-02T05:17:29;6.13;;;4.68;;
14191;SDS011;7177;48.572;7.838;2024-03-02T05:19:55;7.00;;;5.63;;
14191;SDS011;7177;48.572;7.838;2024-03-02T05:22:20;8.40;;;6.00;;
14191;SDS011;7177;48.572;7.838;2024-03-02T05:24:46;7.00;;;5.60;;
14191;SDS011;7177;48.572;7.838;2024-03-02T05:27:11;8.37;;;5.83;;
14191;SDS011;7177;48.572;7.838;2024-03-02T05:29:37;7.57;;;6.00;;
14191;SDS011;7177;48.572;7.838;2024-03-02T05:32:02;6.53;;;5.73;;
14191;SDS011;7177;48.572;7.838;2024-03-02T05:34:28;6.63;;;5.47;;
14191;SDS011;7177;48.572;7.838;2024-03-02T05:36:54;6.90;;;6.03;;
14191;SDS011;7177;48.572;7.838;2024-03-02T05:39:19;9.70;;;7.50;;
14191;SDS011;7177;48.572;7.838;2024-03-02T05:41:45;8.63;;;6.67;;
14191;SDS011;7177;48.572;7.838;2024-03-02T05:44:10;8.50;;;7.23;;
14191;SDS011;7177;48.572;7.838;2024-03-02T05:46:37;8.52;;;6.00;;
14191;SDS011;7177;48.572;7.838;2024-03-02T05:49:02;8.10;;;7.10;;
14191;SDS011;7177;48.572;7.838;2024-03-02T05:51:28;10.60;;;7.37;;
14191;SDS011;7177;48.572;7.838;2024-03-02T05:53:54;10.33;;;8.17;;
14191;SDS011;7177;48.572;7.838;2024-03-02T05:56:20;11.60;;;8.67;;
14191;SDS011;7177;48.572;7.838;2024-03-02T05:58:45;13.43;;;8.87;;
14191;SDS011;7177;48.572;7.838;2024-03-02T06:01:33;10.40;;;8.05;;
14191;SDS011;7177;48.572;7.838;2024-03-02T06:03:59;11.93;;;9.30;;
14191;SDS011;7177;48.572;7.838;2024-03-02T06:06:24;10.87;;;9.07;;
14191;SDS011;7177;48.572;7.838;2024-03-02T06:08:50;11.13;;;8.30;;
14191;SDS011;7177;48.572;7.838;2024-03-02T06:11:16;10.37;;;8.50;;
14191;SDS011;7177;48.572;7.838;2024-03-02T06:13:42;15.05;;;9.00;;
14191;SDS011;7177;48.572;7.838;2024-03-02T06:16:07;12.03;;;8.17;;
14191;SDS011;7177;48.572;7.838;2024-03-02T06:18:33;11.23;;;8.80;;
14191;SDS011;7177;48.572;7.838;2024-03-02T06:20:59;11.17;;;8.87;;
14191;SDS011;7177;48.572;7.838;2024-03-02T06:23:26;10.23;;;8.75;;
14191;SDS011;7177;48.572;7.838;2024-03-02T06:25:51;14.40;;;10.17;;
14191;SDS011;7177;48.572;7.838;2024-03-02T06:28:17;12.93;;;10.30;;
14191;SDS011;7177;48.572;7.838;2024-03-02T06:30:43;13.70;;;10.23;;
14191;SDS011;7177;48.572;7.838;2024-03-02T06:33:10;13.27;;;10.02;;
14191;SDS011;7177;48.572;7.838;2024-03-02T06:35:35;14.60;;;10.93;;
14191;SDS011;7177;48.572;7.838;2024-03-02T06:38:01;15.53;;;11.20;;
14191;SDS011;7177;48.572;7.838;2024-03-02T06:40:27;13.48;;;10.48;;
14191;SDS011;7177;48.572;7.838;2024-03-02T06:42:52;13.90;;;11.13;;
14191;SDS011;7177;48.572;7.838;2024-03-02T06:45:18;12.20;;;10.20;;
14191;SDS011;7177;48.572;7.838;2024-03-02T06:47:44;12.93;;;10.43;;
14191;SDS011;7177;48.572;7.838;2024-03-02T06:50:09;15.10;;;9.77;;
14191;SDS011;7177;48.572;7.838;2024-03-02T06:52:35;11.77;;;8.87;;
14191;SDS011;7177;48.572;7.838;2024-03-02T06:55:01;13.15;;;8.73;;
14191;SDS011;7177;48.572;7.838;2024-03-02T06:57:27;10.10;;;8.00;;
14191;SDS011;7177;48.572;7.838;2024-03-02T06:59:52;10.30;;;7.47;;
14191;SDS011;7177;48.572;7.838;2024-03-02T07:02:20;9.60;;;7.60;;
14191;SDS011;7177;48.572;7.838;2024-03-02T07:04:46;11.02;;;7.55;;
14191;SDS011;7177;48.572;7.838;2024-03-02T07:07:11;12.47;;;9.67;;
14191;SDS011;7177;48.572;7.838;2024-03-02T07:09:37;14.77;;;10.33;;
14191;SDS011;7177;48.572;7.838;2024-03-02T07:12:03;15.07;;;11.27;;
14191;SDS011;7177;48.572;7.838;2024-03-02T07:14:29;21.15;;;12.70;;
14191;SDS011;7177;48.572;7.838;2024-03-02T07:17:13;20.23;;;13.07;;
14191;SDS011;7177;48.572;7.838;2024-03-02T07:19:38;17.63;;;12.37;;
14191;SDS011;7177;48.572;7.838;2024-03-02T07:22:07;13.70;;;10.83;;
14191;SDS011;7177;48.572;7.838;2024-03-02T07:24:39;15.95;;;11.73;;
14191;SDS011;7177;48.572;7.838;2024-03-02T07:27:06;17.67;;;12.37;;
14191;SDS011;7177;48.572;7.838;2024-03-02T07:29:31;15.40;;;12.50;;
14191;SDS011;7177;48.572;7.838;2024-03-02T07:31:57;17.33;;;12.53;;
14191;SDS011;7177;48.572;7.838;2024-03-02T07:34:23;13.90;;;11.03;;
14191;SDS011;7177;48.572;7.838;2024-03-02T07:36:48;14.20;;;11.63;;
14191;SDS011;7177;48.572;7.838;2024-03-02T07:39:14;14.43;;;11.67;;
14191;SDS011;7177;48.572;7.838;2024-03-02T07:41:39;16.47;;;10.97;;
14191;SDS011;7177;48.572;7.838;2024-03-02T07:44:05;14.90;;;11.00;;
14191;SDS011;7177;48.572;7.838;2024-03-02T07:46:30;15.80;;;11.70;;
14191;SDS011;7177;48.572;7.838;2024-03-02T07:48:56;15.13;;;10.63;;
14191;SDS011;7177;48.572;7.838;2024-03-02T07:51:21;12.20;;;10.43;;
14191;SDS011;7177;48.572;7.838;2024-03-02T07:53:47;17.90;;;11.10;;
14191;SDS011;7177;48.572;7.838;2024-03-02T07:56:12;14.23;;;9.27;;
14191;SDS011;7177;48.572;7.838;2024-03-02T07:58:38;10.47;;;8.30;;
14191;SDS011;7177;48.572;7.838;2024-03-02T08:01:03;10.53;;;7.97;;
14191;SDS011;7177;48.572;7.838;2024-03-02T08:03:29;9.80;;;7.90;;
14191;SDS011;7177;48.572;7.838;2024-03-02T08:05:54;9.03;;;7.07;;
14191;SDS011;7177;48.572;7.838;2024-03-02T08:08:20;8.67;;;7.00;;
14191;SDS011;7177;48.572;7.838;2024-03-02T08:10:45;10.03;;;7.87;;
14191;SDS011;7177;48.572;7.838;2024-03-02T08:13:11;9.47;;;7.30;;
14191;SDS011;7177;48.572;7.838;2024-03-02T08:15:37;10.27;;;8.07;;
14191;SDS011;7177;48.572;7.838;2024-03-02T08:18:03;11.53;;;8.27;;
14191;SDS011;7177;48.572;7.838;2024-03-02T08:20:28;11.73;;;8.20;;
14191;SDS011;7177;48.572;7.838;2024-03-02T08:22:54;11.17;;;8.10;;
14191;SDS011;7177;48.572;7.838;2024-03-02T08:25:20;11.23;;;7.53;;
14191;SDS011;7177;48.572;7.838;2024-03-02T08:27:46;12.10;;;7.87;;
14191;SDS011;7177;48.572;7.838;2024-03-02T08:30:12;9.30;;;7.87;;
14191;SDS011;7177;48.572;7.838;2024-03-02T08:32:37;11.03;;;7.67;;
14191;SDS011;7177;48.572;7.838;2024-03-02T08:35:04;11.03;;;8.13;;
14191;SDS011;7177;48.572;7.838;2024-03-02T08:37:30;10.53;;;7.03;;
14191;SDS011;7177;48.572;7.838;2024-03-02T08:39:55;9.20;;;7.13;;
14191;SDS011;7177;48.572;7.838;2024-03-02T08:42:21;9.93;;;7.17;;
14191;SDS011;7177;48.572;7.838;2024-03-02T08:44:47;11.40;;;7.70;;
14191;SDS011;7177;48.572;7.838;2024-03-02T08:47:13;8.60;;;6.73;;
14191;SDS011;7177;48.572;7.838;2024-03-02T08:49:38;9.27;;;6.83;;
14191;SDS011;7177;48.572;7.838;2024-03-02T08:52:04;9.63;;;6.60;;
14191;SDS011;7177;48.572;7.838;2024-03-02T08:54:30;10.30;;;7.03;;
14191;SDS011;7177;48.572;7.838;2024-03-02T08:56:56;8.90;;;6.43;;
14191;SDS011;7177;48.572;7.838;2024-03-02T08:59:21;9.07;;;6.57;;
14191;SDS011;7177;48.572;7.838;2024-03-02T09:01:47;8.00;;;6.17;;
14191;SDS011;7177;48.572;7.838;2024-03-02T09:04:13;7.97;;;6.33;;
14191;SDS011;7177;48.572;7.838;2024-03-02T09:06:38;6.03;;;4.87;;
14191;SDS011;7177;48.572;7.838;2024-03-02T09:09:04;5.73;;;5.00;;
14191;SDS011;7177;48.572;7.838;2024-03-02T09:11:29;8.40;;;6.00;;
14191;SDS011;7177;48.572;7.838;2024-03-02T09:13:55;8.23;;;6.20;;
14191;SDS011;7177;48.572;7.838;2024-03-02T09:16:21;9.73;;;6.17;;
14191;SDS011;7177;48.572;7.838;2024-03-02T09:18:47;7.53;;;6.17;;
14191;SDS011;7177;48.572;7.838;2024-03-02T09:21:12;8.63;;;5.63;;
14191;SDS011;7177;48.572;7.838;2024-03-02T09:23:38;8.03;;;4.83;;
14191;SDS011;7177;48.572;7.838;2024-03-02T09:26:05;7.50;;;4.70;;
14191;SDS011;7177;48.572;7.838;2024-03-02T09:28:30;7.60;;;5.30;;
14191;SDS011;7177;48.572;7.838;2024-03-02T09:30:56;6.47;;;5.03;;
14191;SDS011;7177;48.572;7.838;2024-03-02T09:33:21;7.20;;;4.70;;
14191;SDS011;7177;48.572;7.838;2024-03-02T09:35:47;7.77;;;4.67;;
14191;SDS011;7177;48.572;7.838;2024-03-02T09:38:13;8.07;;;4.87;;
14191;SDS011;7177;48.572;7.838;2024-03-02T09:40:39;7.07;;;4.80;;
14191;SDS011;7177;48.572;7.838;2024-03-02T09:43:07;6.43;;;4.73;;
14191;SDS011;7177;48.572;7.838;2024-03-02T09:45:32;7.97;;;4.07;;
14191;SDS011;7177;48.572;7.838;2024-03-02T09:47:58;7.60;;;4.27;;
14191;SDS011;7177;48.572;7.838;2024-03-02T09:50:24;5.77;;;4.30;;
14191;SDS011;7177;48.572;7.838;2024-03-02T09:52:50;6.57;;;3.93;;
14191;SDS011;7177;48.572;7.838;2024-03-02T09:55:17;9.10;;;4.47;;
14191;SDS011;7177;48.572;7.838;2024-03-02T09:57:44;5.30;;;4.20;;
14191;SDS011;7177;48.572;7.838;2024-03-02T10:00:10;6.00;;;4.10;;
14191;SDS011;7177;48.572;7.838;2024-03-02T10:02:39;5.40;;;4.10;;
14191;SDS011;7177;48.572;7.838;2024-03-02T10:05:08;6.80;;;3.80;;
14191;SDS011;7177;48.572;7.838;2024-03-02T10:07:34;5.90;;;3.87;;
14191;SDS011;7177;48.572;7.838;2024-03-02T10:10:11;6.77;;;4.57;;
14191;SDS011;7177;48.572;7.838;2024-03-02T10:12:38;5.93;;;4.00;;
14191;SDS011;7177;48.572;7.838;2024-03-02T10:15:04;4.20;;;3.60;;
14191;SDS011;7177;48.572;7.838;2024-03-02T10:17:30;4.07;;;2.80;;
14191;SDS011;7177;48.572;7.838;2024-03-02T10:19:56;3.90;;;3.00;;
14191;SDS011;7177;48.572;7.838;2024-03-02T10:22:22;3.90;;;3.23;;
14191;SDS011;7177;48.572;7.838;2024-03-02T10:24:48;4.10;;;3.13;;
14191;SDS011;7177;48.572;7.838;2024-03-02T10:27:17;4.07;;;2.80;;
14191;SDS011;7177;48.572;7.838;2024-03-02T10:29:48;4.07;;;3.30;;
14191;SDS011;7177;48.572;7.838;2024-03-02T10:32:14;4.47;;;3.00;;
14191;SDS011;7177;48.572;7.838;2024-03-02T10:34:41;3.90;;;2.70;;
14191;SDS011;7177;48.572;7.838;2024-03-02T10:37:07;5.30;;;2.60;;
14191;SDS011;7177;48.572;7.838;2024-03-02T10:39:37;4.07;;;3.00;;
14191;SDS011;7177;48.572;7.838;2024-03-02T10:42:04;3.60;;;2.70;;
14191;SDS011;7177;48.572;7.838;2024-03-02T10:44:31;5.17;;;3.00;;
14191;SDS011;7177;48.572;7.838;2024-03-02T10:47:01;2.97;;;2.60;;
14191;SDS011;7177;48.572;7.838;2024-03-02T10:49:29;4.40;;;2.70;;
14191;SDS011;7177;48.572;7.838;2024-03-02T10:51:56;3.60;;;2.57;;
14191;SDS011;7177;48.572;7.838;2024-03-02T10:54:22;2.27;;;1.90;;
14191;SDS011;7177;48.572;7.838;2024-03-02T10:56:51;3.00;;;2.30;;
14191;SDS011;7177;48.572;7.838;2024-03-02T10:59:27;2.70;;;1.97;;
14191;SDS011;7177;48.572;7.838;2024-03-02T11:02:09;3.53;;;1.80;;
14191;SDS011;7177;48.572;7.838;2024-03-02T11:04:37;2.80;;;2.10;;
14191;SDS011;7177;48.572;7.838;2024-03-02T11:07:09;2.70;;;2.10;;
14191;SDS011;7177;48.572;7.838;2024-03-02T11:09:45;2.10;;;1.90;;
14191;SDS011;7177;48.572;7.838;2024-03-02T11:12:29;2.63;;;1.80;;
14191;SDS011;7177;48.572;7.838;2024-03-02T11:14:56;1.93;;;1.63;;
14191;SDS011;7177;48.572;7.838;2024-03-02T11:17:23;2.53;;;1.90;;
14191;SDS011;7177;48.572;7.838;2024-03-02T11:19:50;2.50;;;1.70;;
14191;SDS011;7177;48.572;7.838;2024-03-02T11:22:16;2.17;;;1.70;;
14191;SDS011;7177;48.572;7.838;2024-03-02T11:24:49;1.30;;;1.20;;
14191;SDS011;7177;48.572;7.838;2024-03-02T11:27:59;1.90;;;1.20;;
14191;SDS011;7177;48.572;7.838;2024-03-02T11:32:58;1.17;;;1.00;;
14191;SDS011;7177;48.572;7.838;2024-03-02T11:35:27;1.37;;;1.13;;
14191;SDS011;7177;48.572;7.838;2024-03-02T11:37:56;1.90;;;1.13;;
14191;SDS011;7177;48.572;7.838;2024-03-02T11:40:27;1.70;;;1.10;;
14191;SDS011;7177;48.572;7.838;2024-03-02T11:42:53;1.40;;;1.30;;
14191;SDS011;7177;48.572;7.838;2024-03-02T11:45:22;1.83;;;1.50;;
14191;SDS011;7177;48.572;7.838;2024-03-02T11:47:55;1.80;;;1.40;;
14191;SDS011;7177;48.572;7.838;2024-03-02T11:50:29;3.53;;;1.70;;
14191;SDS011;7177;48.572;7.838;2024-03-02T11:52:55;1.80;;;1.20;;
14191;SDS011;7177;48.572;7.838;2024-03-02T11:55:22;2.47;;;1.30;;
14191;SDS011;7177;48.572;7.838;2024-03-02T11:57:50;1.30;;;1.20;;
14191;SDS011;7177;48.572;7.838;2024-03-02T12:00:17;2.90;;;1.43;;
14191;SDS011;7177;48.572;7.838;2024-03-02T12:02:47;2.53;;;1.33;;
14191;SDS011;7177;48.572;7.838;2024-03-02T12:05:24;1.47;;;1.20;;
14191;SDS011;7177;48.572;7.838;2024-03-02T12:07:55;3.13;;;1.23;;
14191;SDS011;7177;48.572;7.838;2024-03-02T12:10:25;2.07;;;1.40;;
14191;SDS011;7177;48.572;7.838;2024-03-02T12:12:57;2.00;;;1.50;;
14191;SDS011;7177;48.572;7.838;2024-03-02T12:15:25;2.80;;;1.40;;
14191;SDS011;7177;48.572;7.838;2024-03-02T12:17:55;1.70;;;1.60;;
14191;SDS011;7177;48.572;7.838;2024-03-02T12:20:23;1.97;;;1.20;;
14191;SDS011;7177;48.572;7.838;2024-03-02T12:22:50;2.40;;;1.27;;
14191;SDS011;7177;48.572;7.838;2024-03-02T12:25:17;1.00;;;0.90;;
14191;SDS011;7177;48.572;7.838;2024-03-02T12:27:44;1.63;;;1.37;;
14191;SDS011;7177;48.572;7.838;2024-03-02T12:30:11;1.57;;;1.20;;
14191;SDS011;7177;48.572;7.838;2024-03-02T12:32:37;1.33;;;1.13;;
14191;SDS011;7177;48.572;7.838;2024-03-02T12:35:04;1.10;;;1.00;;
14191;SDS011;7177;48.572;7.838;2024-03-02T12:37:30;1.80;;;1.37;;
14191;SDS011;7177;48.572;7.838;2024-03-02T12:39:56;1.17;;;1.07;;
14191;SDS011;7177;48.572;7.838;2024-03-02T12:42:21;1.90;;;1.40;;
14191;SDS011;7177;48.572;7.838;2024-03-02T12:44:48;1.53;;;1.20;;
14191;SDS011;7177;48.572;7.838;2024-03-02T12:47:14;2.60;;;1.47;;
14191;SDS011;7177;48.572;7.838;2024-03-02T12:49:40;1.67;;;1.23;;
14191;SDS011;7177;48.572;7.838;2024-03-02T12:52:05;1.30;;;1.20;;
14191;SDS011;7177;48.572;7.838;2024-03-02T12:54:31;1.70;;;1.23;;
14191;SDS011;7177;48.572;7.838;2024-03-02T12:56:58;1.50;;;1.10;;
14191;SDS011;7177;48.572;7.838;2024-03-02T12:59:24;1.63;;;1.20;;
14191;SDS011;7177;48.572;7.838;2024-03-02T13:01:55;1.23;;;1.10;;
14191;SDS011;7177;48.572;7.838;2024-03-02T13:06:50;1.30;;;1.20;;
14191;SDS011;7177;48.572;7.838;2024-03-02T13:09:17;1.77;;;1.30;;
14191;SDS011;7177;48.572;7.838;2024-03-02T13:11:43;2.07;;;1.30;;
14191;SDS011;7177;48.572;7.838;2024-03-02T13:14:10;1.60;;;1.23;;
14191;SDS011;7177;48.572;7.838;2024-03-02T13:16:39;1.57;;;1.30;;
14191;SDS011;7177;48.572;7.838;2024-03-02T13:19:07;2.13;;;1.30;;
14191;SDS011;7177;48.572;7.838;2024-03-02T13:21:33;1.20;;;1.10;;
14191;SDS011;7177;48.572;7.838;2024-03-02T13:23:58;1.30;;;1.10;;
14191;SDS011;7177;48.572;7.838;2024-03-02T13:26:25;1.50;;;1.30;;
14191;SDS011;7177;48.572;7.838;2024-03-02T13:28:50;1.20;;;1.10;;
14191;SDS011;7177;48.572;7.838;2024-03-02T13:31:16;2.27;;;0.90;;
14191;SDS011;7177;48.572;7.838;2024-03-02T13:33:42;1.10;;;1.00;;
14191;SDS011;7177;48.572;7.838;2024-03-02T13:36:07;1.87;;;1.17;;
14191;SDS011;7177;48.572;7.838;2024-03-02T13:38:33;1.83;;;1.30;;
14191;SDS011;7177;48.572;7.838;2024-03-02T13:40:58;1.07;;;0.80;;
14191;SDS011;7177;48.572;7.838;2024-03-02T13:43:25;2.10;;;1.07;;
14191;SDS011;7177;48.572;7.838;2024-03-02T13:45:51;1.70;;;0.90;;
14191;SDS011;7177;48.572;7.838;2024-03-02T13:48:18;1.00;;;0.90;;
14191;SDS011;7177;48.572;7.838;2024-03-02T13:50:44;1.23;;;0.80;;
14191;SDS011;7177;48.572;7.838;2024-03-02T13:53:10;2.03;;;1.00;;
14191;SDS011;7177;48.572;7.838;2024-03-02T13:55:36;1.47;;;1.10;;
14191;SDS011;7177;48.572;7.838;2024-03-02T13:58:02;1.87;;;1.07;;
14191;SDS011;7177;48.572;7.838;2024-03-02T14:00:28;1.40;;;1.10;;
14191;SDS011;7177;48.572;7.838;2024-03-02T14:02:54;1.50;;;1.10;;
14191;SDS011;7177;48.572;7.838;2024-03-02T14:05:20;1.40;;;1.03;;
14191;SDS011;7177;48.572;7.838;2024-03-02T14:07:46;3.50;;;1.00;;
14191;SDS011;7177;48.572;7.838;2024-03-02T14:10:11;2.33;;;1.27;;
14191;SDS011;7177;48.572;7.838;2024-03-02T14:12:37;2.70;;;0.93;;
14191;SDS011;7177;48.572;7.838;2024-03-02T14:15:03;3.70;;;1.37;;
14191;SDS011;7177;48.572;7.838;2024-03-02T14:17:29;1.30;;;1.20;;
14191;SDS011;7177;48.572;7.838;2024-03-02T14:19:56;1.20;;;1.07;;
14191;SDS011;7177;48.572;7.838;2024-03-02T14:22:23;2.90;;;1.20;;
14191;SDS011;7177;48.572;7.838;2024-03-02T14:24:49;1.43;;;1.17;;
14191;SDS011;7177;48.572;7.838;2024-03-02T14:27:15;2.93;;;1.20;;
14191;SDS011;7177;48.572;7.838;2024-03-02T14:29:42;1.53;;;1.10;;
14191;SDS011;7177;48.572;7.838;2024-03-02T14:32:08;1.60;;;1.17;;
14191;SDS011;7177;48.572;7.838;2024-03-02T14:34:33;2.03;;;1.03;;
14191;SDS011;7177;48.572;7.838;2024-03-02T14:36:59;2.13;;;0.90;;
14191;SDS011;7177;48.572;7.838;2024-03-02T14:39:25;1.77;;;1.20;;
14191;SDS011;7177;48.572;7.838;2024-03-02T14:41:51;1.70;;;1.10;;
14191;SDS011;7177;48.572;7.838;2024-03-02T14:44:17;1.50;;;1.20;;
14191;SDS011;7177;48.572;7.838;2024-03-02T14:46:42;3.97;;;1.70;;
14191;SDS011;7177;48.572;7.838;2024-03-02T14:49:08;1.80;;;1.30;;
14191;SDS011;7177;48.572;7.838;2024-03-02T14:51:35;1.17;;;1.00;;
14191;SDS011;7177;48.572;7.838;2024-03-02T14:54:01;1.63;;;1.00;;
14191;SDS011;7177;48.572;7.838;2024-03-02T14:56:28;1.70;;;1.33;;
14191;SDS011;7177;48.572;7.838;2024-03-02T14:58:53;1.33;;;1.03;;
14191;SDS011;7177;48.572;7.838;2024-03-02T15:01:19;3.67;;;1.07;;
14191;SDS011;7177;48.572;7.838;2024-03-02T15:03:47;1.90;;;1.10;;